sensor_id;sensor_type;location;lat;lon;timestamp;P1;durP1;ratioP1;P2;durP2;ratioP2
37311;SDS011;23197;53.912;9.138;2022-10-29T00:02:03;17.23;;;4.88;;
37311;SDS011;23197;53.912;9.138;2022-10-29T00:04:28;16.73;;;4.47;;
37311;SDS011;23197;53.912;9.138;2022-10-29T00:06:54;18.15;;;4.78;;
37311;SDS011;23197;53.912;9.138;2022-10-29T00:09:19;22.50;;;5.20;;
37311;SDS011;23197;53.912;9.138;2022-10-29T00:11:44;16.13;;;4.07;;
37311;SDS011;23197;53.912;9.138;2022-10-29T00:14:10;21.67;;;4.18;;
37311;SDS011;23197;53.912;9.138;2022-10-29T00:16:36;17.30;;;4.88;;
37311;SDS011;23197;53.912;9.138;2022-10-29T00:19:02;20.45;;;4.35;;
37311;SDS011;23197;53.912;9.138;2022-10-29T00:21:28;19.65;;;4.63;;
37311;SDS011;23197;53.912;9.138;2022-10-29T00:23:55;20.52;;;4.80;;
37311;SDS011;23197;53.912;9.138;2022-10-29T00:26:21;19.08;;;4.95;;
37311;SDS011;23197;53.912;9.138;2022-10-29T00:28:52;18.50;;;4.45;;
37311;SDS011;23197;53.912;9.138;2022-10-29T00:31:18;20.27;;;4.85;;
37311;SDS011;23197;53.912;9.138;2022-10-29T00:33:44;19.50;;;5.28;;
37311;SDS011;23197;53.912;9.138;2022-10-29T00:36:11;23.25;;;5.13;;
37311;SDS011;23197;53.912;9.138;2022-10-29T00:38:38;16.48;;;4.68;;
37311;SDS011;23197;53.912;9.138;2022-10-29T00:41:05;22.40;;;5.25;;
37311;SDS011;23197;53.912;9.138;2022-10-29T00:43:32;17.42;;;4.60;;
37311;SDS011;23197;53.912;9.138;2022-10-29T00:46:20;22.50;;;5.10;;
37311;SDS011;23197;53.912;9.138;2022-10-29T00:48:58;21.90;;;5.97;;
37311;SDS011;23197;53.912;9.138;2022-10-29T00:51:24;18.63;;;5.20;;
37311;SDS011;23197;53.912;9.138;2022-10-29T00:53:53;26.17;;;5.88;;
37311;SDS011;23197;53.912;9.138;2022-10-29T00:56:22;19.60;;;5.20;;
37311;SDS011;23197;53.912;9.138;2022-10-29T00:58:50;21.25;;;4.90;;
37311;SDS011;23197;53.912;9.138;2022-10-29T01:01:16;16.42;;;4.55;;
37311;SDS011;23197;53.912;9.138;2022-10-29T01:03:42;17.88;;;5.35;;
37311;SDS011;23197;53.912;9.138;2022-10-29T01:06:07;21.40;;;5.50;;
37311;SDS011;23197;53.912;9.138;2022-10-29T01:08:33;16.67;;;4.53;;
37311;SDS011;23197;53.912;9.138;2022-10-29T01:11:03;18.42;;;5.43;;
37311;SDS011;23197;53.912;9.138;2022-10-29T01:16:59;19.40;;;4.70;;
37311;SDS011;23197;53.912;9.138;2022-10-29T01:36:09;23.15;;;4.60;;
37311;SDS011;23197;53.912;9.138;2022-10-29T01:38:50;18.95;;;4.35;;
37311;SDS011;23197;53.912;9.138;2022-10-29T01:44:10;12.88;;;3.78;;
37311;SDS011;23197;53.912;9.138;2022-10-29T01:46:46;17.27;;;4.18;;
37311;SDS011;23197;53.912;9.138;2022-10-29T01:49:44;20.27;;;4.97;;
37311;SDS011;23197;53.912;9.138;2022-10-29T01:52:10;20.67;;;4.88;;
37311;SDS011;23197;53.912;9.138;2022-10-29T01:54:38;18.38;;;4.20;;
37311;SDS011;23197;53.912;9.138;2022-10-29T01:57:22;14.27;;;4.07;;
37311;SDS011;23197;53.912;9.138;2022-10-29T01:59:50;19.23;;;4.07;;
37311;SDS011;23197;53.912;9.138;2022-10-29T02:02:36;21.00;;;4.82;;
37311;SDS011;23197;53.912;9.138;2022-10-29T02:08:02;15.27;;;3.72;;
37311;SDS011;23197;53.912;9.138;2022-10-29T02:10:32;18.38;;;4.30;;
37311;SDS011;23197;53.912;9.138;2022-10-29T02:13:04;17.30;;;4.13;;
37311;SDS011;23197;53.912;9.138;2022-10-29T02:15:52;16.40;;;3.95;;
37311;SDS011;23197;53.912;9.138;2022-10-29T02:18:20;19.17;;;3.80;;
37311;SDS011;23197;53.912;9.138;2022-10-29T02:20:46;10.50;;;3.33;;
37311;SDS011;23197;53.912;9.138;2022-10-29T02:23:12;19.08;;;4.07;;
37311;SDS011;23197;53.912;9.138;2022-10-29T02:25:40;17.20;;;3.92;;
37311;SDS011;23197;53.912;9.138;2022-10-29T02:28:06;14.05;;;3.75;;
37311;SDS011;23197;53.912;9.138;2022-10-29T02:30:32;16.23;;;3.75;;
37311;SDS011;23197;53.912;9.138;2022-10-29T02:32:57;16.35;;;3.47;;
37311;SDS011;23197;53.912;9.138;2022-10-29T02:35:23;16.38;;;3.58;;
37311;SDS011;23197;53.912;9.138;2022-10-29T02:37:48;13.80;;;2.97;;
37311;SDS011;23197;53.912;9.138;2022-10-29T02:40:13;15.55;;;3.60;;
37311;SDS011;23197;53.912;9.138;2022-10-29T02:42:39;15.27;;;3.63;;
37311;SDS011;23197;53.912;9.138;2022-10-29T02:45:04;12.80;;;3.15;;
37311;SDS011;23197;53.912;9.138;2022-10-29T02:47:30;18.85;;;3.83;;
37311;SDS011;23197;53.912;9.138;2022-10-29T02:49:56;12.55;;;3.30;;
37311;SDS011;23197;53.912;9.138;2022-10-29T02:52:21;12.52;;;3.20;;
37311;SDS011;23197;53.912;9.138;2022-10-29T02:54:47;11.75;;;3.53;;
37311;SDS011;23197;53.912;9.138;2022-10-29T02:57:12;13.57;;;3.67;;
37311;SDS011;23197;53.912;9.138;2022-10-29T02:59:38;16.58;;;4.00;;
37311;SDS011;23197;53.912;9.138;2022-10-29T03:02:03;19.30;;;4.60;;
37311;SDS011;23197;53.912;9.138;2022-10-29T03:04:28;13.23;;;3.13;;
37311;SDS011;23197;53.912;9.138;2022-10-29T03:06:54;20.83;;;3.70;;
37311;SDS011;23197;53.912;9.138;2022-10-29T03:09:19;9.85;;;3.20;;
37311;SDS011;23197;53.912;9.138;2022-10-29T03:11:45;14.35;;;4.10;;
37311;SDS011;23197;53.912;9.138;2022-10-29T03:14:11;13.93;;;3.50;;
37311;SDS011;23197;53.912;9.138;2022-10-29T03:16:37;18.70;;;3.92;;
37311;SDS011;23197;53.912;9.138;2022-10-29T03:19:02;11.05;;;3.58;;
37311;SDS011;23197;53.912;9.138;2022-10-29T03:21:28;15.90;;;4.50;;
37311;SDS011;23197;53.912;9.138;2022-10-29T03:23:53;16.25;;;4.47;;
37311;SDS011;23197;53.912;9.138;2022-10-29T03:26:18;16.25;;;4.47;;
37311;SDS011;23197;53.912;9.138;2022-10-29T03:28:44;14.52;;;3.67;;
37311;SDS011;23197;53.912;9.138;2022-10-29T03:31:09;12.00;;;3.67;;
37311;SDS011;23197;53.912;9.138;2022-10-29T03:33:35;14.70;;;4.20;;
37311;SDS011;23197;53.912;9.138;2022-10-29T03:36:01;13.23;;;3.58;;
37311;SDS011;23197;53.912;9.138;2022-10-29T03:38:28;16.05;;;4.20;;
37311;SDS011;23197;53.912;9.138;2022-10-29T03:40:54;14.43;;;4.82;;
37311;SDS011;23197;53.912;9.138;2022-10-29T03:43:19;11.70;;;4.45;;
37311;SDS011;23197;53.912;9.138;2022-10-29T03:45:51;16.80;;;4.35;;
37311;SDS011;23197;53.912;9.138;2022-10-29T03:48:18;12.68;;;4.70;;
37311;SDS011;23197;53.912;9.138;2022-10-29T03:50:44;17.20;;;4.78;;
37311;SDS011;23197;53.912;9.138;2022-10-29T03:53:18;13.27;;;5.03;;
37311;SDS011;23197;53.912;9.138;2022-10-29T03:55:43;16.90;;;5.65;;
37311;SDS011;23197;53.912;9.138;2022-10-29T03:58:08;19.83;;;6.70;;
37311;SDS011;23197;53.912;9.138;2022-10-29T04:00:34;15.50;;;5.80;;
37311;SDS011;23197;53.912;9.138;2022-10-29T04:02:59;14.07;;;5.45;;
37311;SDS011;23197;53.912;9.138;2022-10-29T04:05:25;18.30;;;5.63;;
37311;SDS011;23197;53.912;9.138;2022-10-29T04:07:50;15.55;;;5.68;;
37311;SDS011;23197;53.912;9.138;2022-10-29T04:10:16;20.80;;;6.53;;
37311;SDS011;23197;53.912;9.138;2022-10-29T04:12:43;18.10;;;6.20;;
37311;SDS011;23197;53.912;9.138;2022-10-29T04:15:10;17.95;;;6.13;;
37311;SDS011;23197;53.912;9.138;2022-10-29T04:17:35;19.85;;;6.75;;
37311;SDS011;23197;53.912;9.138;2022-10-29T04:20:00;17.73;;;6.50;;
37311;SDS011;23197;53.912;9.138;2022-10-29T04:22:26;18.65;;;6.20;;
37311;SDS011;23197;53.912;9.138;2022-10-29T04:24:51;22.00;;;6.80;;
37311;SDS011;23197;53.912;9.138;2022-10-29T04:27:17;24.73;;;7.28;;
37311;SDS011;23197;53.912;9.138;2022-10-29T04:29:42;16.42;;;6.97;;
37311;SDS011;23197;53.912;9.138;2022-10-29T04:32:08;26.17;;;7.38;;
37311;SDS011;23197;53.912;9.138;2022-10-29T04:34:33;14.45;;;6.07;;
37311;SDS011;23197;53.912;9.138;2022-10-29T04:36:58;20.48;;;6.78;;
37311;SDS011;23197;53.912;9.138;2022-10-29T04:39:24;25.23;;;7.97;;
37311;SDS011;23197;53.912;9.138;2022-10-29T04:41:49;20.15;;;6.82;;
37311;SDS011;23197;53.912;9.138;2022-10-29T04:44:15;26.02;;;6.88;;
37311;SDS011;23197;53.912;9.138;2022-10-29T04:46:40;26.00;;;6.78;;
37311;SDS011;23197;53.912;9.138;2022-10-29T04:49:05;15.88;;;6.75;;
37311;SDS011;23197;53.912;9.138;2022-10-29T04:51:31;38.45;;;7.72;;
37311;SDS011;23197;53.912;9.138;2022-10-29T04:53:56;32.30;;;7.78;;
37311;SDS011;23197;53.912;9.138;2022-10-29T04:56:22;43.60;;;8.57;;
37311;SDS011;23197;53.912;9.138;2022-10-29T04:58:49;19.70;;;7.90;;
37311;SDS011;23197;53.912;9.138;2022-10-29T05:01:15;25.45;;;6.78;;
37311;SDS011;23197;53.912;9.138;2022-10-29T05:03:41;39.08;;;8.32;;
37311;SDS011;23197;53.912;9.138;2022-10-29T05:06:06;43.38;;;7.70;;
37311;SDS011;23197;53.912;9.138;2022-10-29T05:08:32;26.52;;;7.18;;
37311;SDS011;23197;53.912;9.138;2022-10-29T05:11:00;16.85;;;7.57;;
37311;SDS011;23197;53.912;9.138;2022-10-29T05:13:26;21.00;;;7.55;;
37311;SDS011;23197;53.912;9.138;2022-10-29T05:15:51;44.08;;;7.75;;
37311;SDS011;23197;53.912;9.138;2022-10-29T05:18:17;16.08;;;6.20;;
37311;SDS011;23197;53.912;9.138;2022-10-29T05:20:42;11.77;;;5.60;;
37311;SDS011;23197;53.912;9.138;2022-10-29T05:23:09;13.77;;;5.00;;
37311;SDS011;23197;53.912;9.138;2022-10-29T05:25:36;22.33;;;5.40;;
37311;SDS011;23197;53.912;9.138;2022-10-29T05:28:07;21.38;;;5.13;;
37311;SDS011;23197;53.912;9.138;2022-10-29T05:30:36;17.38;;;4.72;;
37311;SDS011;23197;53.912;9.138;2022-10-29T05:33:05;15.45;;;4.63;;
37311;SDS011;23197;53.912;9.138;2022-10-29T05:35:31;15.90;;;4.15;;
37311;SDS011;23197;53.912;9.138;2022-10-29T05:37:57;33.08;;;4.60;;
37311;SDS011;23197;53.912;9.138;2022-10-29T05:40:23;23.63;;;5.32;;
37311;SDS011;23197;53.912;9.138;2022-10-29T05:42:49;9.40;;;3.75;;
37311;SDS011;23197;53.912;9.138;2022-10-29T05:45:14;16.35;;;4.20;;
37311;SDS011;23197;53.912;9.138;2022-10-29T05:47:40;18.77;;;4.00;;
37311;SDS011;23197;53.912;9.138;2022-10-29T05:50:06;8.38;;;2.97;;
37311;SDS011;23197;53.912;9.138;2022-10-29T05:52:32;15.88;;;4.22;;
37311;SDS011;23197;53.912;9.138;2022-10-29T05:54:57;30.25;;;4.38;;
37311;SDS011;23197;53.912;9.138;2022-10-29T05:57:23;14.65;;;4.25;;
37311;SDS011;23197;53.912;9.138;2022-10-29T05:59:48;26.35;;;4.70;;
37311;SDS011;23197;53.912;9.138;2022-10-29T06:02:13;6.97;;;3.90;;
37311;SDS011;23197;53.912;9.138;2022-10-29T06:04:39;7.97;;;3.53;;
37311;SDS011;23197;53.912;9.138;2022-10-29T06:07:04;21.75;;;4.28;;
37311;SDS011;23197;53.912;9.138;2022-10-29T06:09:30;21.40;;;4.03;;
37311;SDS011;23197;53.912;9.138;2022-10-29T06:11:55;23.52;;;3.63;;
37311;SDS011;23197;53.912;9.138;2022-10-29T06:14:21;12.90;;;4.10;;
37311;SDS011;23197;53.912;9.138;2022-10-29T06:16:47;22.88;;;5.03;;
37311;SDS011;23197;53.912;9.138;2022-10-29T06:19:12;26.58;;;4.65;;
37311;SDS011;23197;53.912;9.138;2022-10-29T06:21:38;26.38;;;4.80;;
37311;SDS011;23197;53.912;9.138;2022-10-29T06:24:03;8.10;;;4.28;;
37311;SDS011;23197;53.912;9.138;2022-10-29T06:26:29;14.73;;;4.25;;
37311;SDS011;23197;53.912;9.138;2022-10-29T06:28:55;12.00;;;4.30;;
37311;SDS011;23197;53.912;9.138;2022-10-29T06:31:20;18.23;;;4.15;;
37311;SDS011;23197;53.912;9.138;2022-10-29T06:33:49;11.68;;;4.90;;
37311;SDS011;23197;53.912;9.138;2022-10-29T06:36:14;14.52;;;4.50;;
37311;SDS011;23197;53.912;9.138;2022-10-29T06:38:40;14.80;;;4.32;;
37311;SDS011;23197;53.912;9.138;2022-10-29T06:41:05;12.95;;;4.50;;
37311;SDS011;23197;53.912;9.138;2022-10-29T06:43:31;20.02;;;4.55;;
37311;SDS011;23197;53.912;9.138;2022-10-29T06:45:56;22.88;;;5.30;;
37311;SDS011;23197;53.912;9.138;2022-10-29T06:48:22;21.80;;;5.70;;
37311;SDS011;23197;53.912;9.138;2022-10-29T06:50:47;13.38;;;4.85;;
37311;SDS011;23197;53.912;9.138;2022-10-29T06:53:13;55.63;;;5.50;;
37311;SDS011;23197;53.912;9.138;2022-10-29T06:55:39;22.48;;;5.60;;
37311;SDS011;23197;53.912;9.138;2022-10-29T06:58:05;16.77;;;5.90;;
37311;SDS011;23197;53.912;9.138;2022-10-29T07:00:39;18.08;;;6.10;;
37311;SDS011;23197;53.912;9.138;2022-10-29T07:03:05;14.23;;;5.28;;
37311;SDS011;23197;53.912;9.138;2022-10-29T07:05:31;19.27;;;4.78;;
37311;SDS011;23197;53.912;9.138;2022-10-29T07:07:58;20.92;;;5.60;;
37311;SDS011;23197;53.912;9.138;2022-10-29T07:10:25;20.85;;;5.05;;
37311;SDS011;23197;53.912;9.138;2022-10-29T07:12:52;30.13;;;6.20;;
37311;SDS011;23197;53.912;9.138;2022-10-29T07:15:18;40.30;;;7.50;;
37311;SDS011;23197;53.912;9.138;2022-10-29T07:18:00;15.60;;;5.63;;
37311;SDS011;23197;53.912;9.138;2022-10-29T07:20:28;24.33;;;6.87;;
37311;SDS011;23197;53.912;9.138;2022-10-29T07:22:55;13.73;;;6.57;;
37311;SDS011;23197;53.912;9.138;2022-10-29T07:25:21;20.23;;;6.07;;
37311;SDS011;23197;53.912;9.138;2022-10-29T07:27:47;10.55;;;5.60;;
37311;SDS011;23197;53.912;9.138;2022-10-29T07:30:13;52.40;;;6.38;;
37311;SDS011;23197;53.912;9.138;2022-10-29T07:32:40;30.13;;;7.95;;
37311;SDS011;23197;53.912;9.138;2022-10-29T07:35:05;16.33;;;6.70;;
37311;SDS011;23197;53.912;9.138;2022-10-29T07:37:31;14.35;;;6.10;;
37311;SDS011;23197;53.912;9.138;2022-10-29T07:39:56;10.25;;;6.22;;
37311;SDS011;23197;53.912;9.138;2022-10-29T07:42:22;26.15;;;6.80;;
37311;SDS011;23197;53.912;9.138;2022-10-29T07:44:47;20.88;;;6.05;;
37311;SDS011;23197;53.912;9.138;2022-10-29T07:47:13;29.20;;;6.60;;
37311;SDS011;23197;53.912;9.138;2022-10-29T07:49:38;21.30;;;5.70;;
37311;SDS011;23197;53.912;9.138;2022-10-29T07:52:03;37.47;;;7.55;;
37311;SDS011;23197;53.912;9.138;2022-10-29T07:54:29;14.45;;;6.72;;
37311;SDS011;23197;53.912;9.138;2022-10-29T07:56:54;16.02;;;6.65;;
37311;SDS011;23197;53.912;9.138;2022-10-29T07:59:20;19.60;;;6.35;;
37311;SDS011;23197;53.912;9.138;2022-10-29T08:01:45;17.52;;;6.30;;
37311;SDS011;23197;53.912;9.138;2022-10-29T08:04:10;17.80;;;7.32;;
37311;SDS011;23197;53.912;9.138;2022-10-29T08:06:36;18.77;;;7.05;;
37311;SDS011;23197;53.912;9.138;2022-10-29T08:09:02;25.20;;;8.10;;
37311;SDS011;23197;53.912;9.138;2022-10-29T08:11:29;20.23;;;7.47;;
37311;SDS011;23197;53.912;9.138;2022-10-29T08:13:55;29.45;;;7.07;;
37311;SDS011;23197;53.912;9.138;2022-10-29T08:16:20;17.05;;;7.60;;
37311;SDS011;23197;53.912;9.138;2022-10-29T08:18:46;28.52;;;8.07;;
37311;SDS011;23197;53.912;9.138;2022-10-29T08:21:11;23.17;;;7.82;;
37311;SDS011;23197;53.912;9.138;2022-10-29T08:23:37;17.77;;;7.18;;
37311;SDS011;23197;53.912;9.138;2022-10-29T08:26:02;22.20;;;7.70;;
37311;SDS011;23197;53.912;9.138;2022-10-29T08:28:27;12.40;;;6.97;;
37311;SDS011;23197;53.912;9.138;2022-10-29T08:30:53;16.75;;;7.03;;
37311;SDS011;23197;53.912;9.138;2022-10-29T08:33:18;18.38;;;7.63;;
37311;SDS011;23197;53.912;9.138;2022-10-29T08:35:44;23.65;;;7.53;;
37311;SDS011;23197;53.912;9.138;2022-10-29T08:38:10;22.48;;;9.02;;
37311;SDS011;23197;53.912;9.138;2022-10-29T08:45:48;22.17;;;11.98;;
37311;SDS011;23197;53.912;9.138;2022-10-29T08:51:13;18.83;;;10.07;;
37311;SDS011;23197;53.912;9.138;2022-10-29T08:53:45;13.95;;;8.10;;
37311;SDS011;23197;53.912;9.138;2022-10-29T08:56:20;16.60;;;8.90;;
37311;SDS011;23197;53.912;9.138;2022-10-29T09:01:44;17.65;;;10.20;;
37311;SDS011;23197;53.912;9.138;2022-10-29T09:09:27;14.95;;;8.63;;
37311;SDS011;23197;53.912;9.138;2022-10-29T09:22:47;11.27;;;7.28;;
37311;SDS011;23197;53.912;9.138;2022-10-29T09:25:30;12.65;;;8.18;;
37311;SDS011;23197;53.912;9.138;2022-10-29T09:30:48;14.80;;;8.50;;
37311;SDS011;23197;53.912;9.138;2022-10-29T09:33:31;15.98;;;9.15;;
37311;SDS011;23197;53.912;9.138;2022-10-29T09:35:57;15.35;;;8.77;;
37311;SDS011;23197;53.912;9.138;2022-10-29T09:38:25;17.70;;;9.52;;
37311;SDS011;23197;53.912;9.138;2022-10-29T09:40:57;16.60;;;9.20;;
37311;SDS011;23197;53.912;9.138;2022-10-29T09:49:03;19.75;;;9.30;;
37311;SDS011;23197;53.912;9.138;2022-10-29T09:51:48;15.75;;;9.57;;
37311;SDS011;23197;53.912;9.138;2022-10-29T09:54:20;21.52;;;11.48;;
37311;SDS011;23197;53.912;9.138;2022-10-29T09:56:48;16.40;;;10.27;;
37311;SDS011;23197;53.912;9.138;2022-10-29T10:01:54;14.20;;;9.32;;
37311;SDS011;23197;53.912;9.138;2022-10-29T10:04:29;16.48;;;10.02;;
37311;SDS011;23197;53.912;9.138;2022-10-29T10:07:02;14.50;;;9.00;;
37311;SDS011;23197;53.912;9.138;2022-10-29T10:09:48;18.23;;;9.50;;
37311;SDS011;23197;53.912;9.138;2022-10-29T10:18:05;15.60;;;8.70;;
37311;SDS011;23197;53.912;9.138;2022-10-29T10:20:42;16.88;;;10.27;;
37311;SDS011;23197;53.912;9.138;2022-10-29T10:26:02;16.25;;;8.82;;
37311;SDS011;23197;53.912;9.138;2022-10-29T10:28:30;17.13;;;9.30;;
37311;SDS011;23197;53.912;9.138;2022-10-29T10:33:34;19.60;;;10.43;;
37311;SDS011;23197;53.912;9.138;2022-10-29T10:36:10;20.42;;;11.57;;
37311;SDS011;23197;53.912;9.138;2022-10-29T10:38:39;19.98;;;11.23;;
37311;SDS011;23197;53.912;9.138;2022-10-29T10:41:11;18.05;;;10.10;;
37311;SDS011;23197;53.912;9.138;2022-10-29T10:43:40;17.05;;;9.63;;
37311;SDS011;23197;53.912;9.138;2022-10-29T10:46:12;17.58;;;8.85;;
37311;SDS011;23197;53.912;9.138;2022-10-29T10:48:55;15.88;;;9.45;;
37311;SDS011;23197;53.912;9.138;2022-10-29T10:51:26;15.82;;;9.70;;
37311;SDS011;23197;53.912;9.138;2022-10-29T10:53:55;16.33;;;9.25;;
37311;SDS011;23197;53.912;9.138;2022-10-29T10:56:21;16.63;;;8.75;;
37311;SDS011;23197;53.912;9.138;2022-10-29T10:59:06;15.50;;;9.30;;
37311;SDS011;23197;53.912;9.138;2022-10-29T11:04:17;15.48;;;8.85;;
37311;SDS011;23197;53.912;9.138;2022-10-29T11:06:57;17.27;;;10.20;;
37311;SDS011;23197;53.912;9.138;2022-10-29T11:09:32;16.85;;;9.50;;
37311;SDS011;23197;53.912;9.138;2022-10-29T11:14:53;19.42;;;9.15;;
37311;SDS011;23197;53.912;9.138;2022-10-29T11:17:30;15.75;;;9.13;;
37311;SDS011;23197;53.912;9.138;2022-10-29T11:25:52;18.67;;;10.52;;
37311;SDS011;23197;53.912;9.138;2022-10-29T11:28:37;17.77;;;9.73;;
37311;SDS011;23197;53.912;9.138;2022-10-29T11:32:08;16.55;;;9.15;;
37311;SDS011;23197;53.912;9.138;2022-10-29T11:36:42;18.25;;;11.10;;
37311;SDS011;23197;53.912;9.138;2022-10-29T11:39:25;16.58;;;10.32;;
37311;SDS011;23197;53.912;9.138;2022-10-29T11:41:56;21.02;;;11.77;;
37311;SDS011;23197;53.912;9.138;2022-10-29T11:44:23;20.10;;;11.70;;
37311;SDS011;23197;53.912;9.138;2022-10-29T11:52:45;20.88;;;11.15;;
37311;SDS011;23197;53.912;9.138;2022-10-29T11:57:58;19.48;;;10.35;;
37311;SDS011;23197;53.912;9.138;2022-10-29T12:00:28;17.98;;;11.70;;
37311;SDS011;23197;53.912;9.138;2022-10-29T12:14:02;19.42;;;10.07;;
37311;SDS011;23197;53.912;9.138;2022-10-29T12:17:28;19.77;;;10.25;;
37311;SDS011;23197;53.912;9.138;2022-10-29T12:20:11;19.33;;;10.80;;
37311;SDS011;23197;53.912;9.138;2022-10-29T12:23:08;18.55;;;10.05;;
37311;SDS011;23197;53.912;9.138;2022-10-29T12:26:06;21.70;;;10.15;;
37311;SDS011;23197;53.912;9.138;2022-10-29T12:28:49;21.75;;;10.68;;
37311;SDS011;23197;53.912;9.138;2022-10-29T12:39:39;25.48;;;13.13;;
37311;SDS011;23197;53.912;9.138;2022-10-29T12:42:30;20.50;;;11.13;;
37311;SDS011;23197;53.912;9.138;2022-10-29T12:52:51;20.25;;;10.68;;
37311;SDS011;23197;53.912;9.138;2022-10-29T12:55:25;24.58;;;12.23;;
37311;SDS011;23197;53.912;9.138;2022-10-29T12:57:51;20.25;;;11.98;;
37311;SDS011;23197;53.912;9.138;2022-10-29T13:02:49;24.13;;;11.73;;
37311;SDS011;23197;53.912;9.138;2022-10-29T13:18:03;23.02;;;12.07;;
37311;SDS011;23197;53.912;9.138;2022-10-29T13:20:41;26.05;;;12.52;;
37311;SDS011;23197;53.912;9.138;2022-10-29T13:25:46;27.13;;;13.27;;
37311;SDS011;23197;53.912;9.138;2022-10-29T13:30:40;27.65;;;14.65;;
37311;SDS011;23197;53.912;9.138;2022-10-29T13:35:51;33.30;;;15.75;;
37311;SDS011;23197;53.912;9.138;2022-10-29T13:41:18;33.65;;;15.15;;
37311;SDS011;23197;53.912;9.138;2022-10-29T13:46:40;30.80;;;15.02;;
37311;SDS011;23197;53.912;9.138;2022-10-29T13:49:29;32.65;;;15.82;;
37311;SDS011;23197;53.912;9.138;2022-10-29T13:51:56;36.90;;;17.75;;
37311;SDS011;23197;53.912;9.138;2022-10-29T13:54:42;37.90;;;18.30;;
37311;SDS011;23197;53.912;9.138;2022-10-29T13:57:24;35.75;;;18.58;;
37311;SDS011;23197;53.912;9.138;2022-10-29T14:10:46;49.97;;;22.42;;
37311;SDS011;23197;53.912;9.138;2022-10-29T14:18:26;46.63;;;22.83;;
37311;SDS011;23197;53.912;9.138;2022-10-29T14:20:59;47.60;;;22.60;;
37311;SDS011;23197;53.912;9.138;2022-10-29T14:23:26;55.03;;;23.92;;
37311;SDS011;23197;53.912;9.138;2022-10-29T14:25:53;47.67;;;23.80;;
37311;SDS011;23197;53.912;9.138;2022-10-29T14:33:46;47.75;;;23.80;;
37311;SDS011;23197;53.912;9.138;2022-10-29T14:36:21;50.72;;;24.73;;
37311;SDS011;23197;53.912;9.138;2022-10-29T14:38:59;46.88;;;22.73;;
37311;SDS011;23197;53.912;9.138;2022-10-29T14:41:29;46.78;;;22.92;;
37311;SDS011;23197;53.912;9.138;2022-10-29T14:46:50;41.58;;;21.85;;
37311;SDS011;23197;53.912;9.138;2022-10-29T14:49:38;40.92;;;19.95;;
37311;SDS011;23197;53.912;9.138;2022-10-29T15:00:34;33.28;;;18.45;;
37311;SDS011;23197;53.912;9.138;2022-10-29T15:03:01;35.38;;;17.90;;
37311;SDS011;23197;53.912;9.138;2022-10-29T15:05:28;36.08;;;17.88;;
37311;SDS011;23197;53.912;9.138;2022-10-29T15:10:46;37.25;;;19.70;;
37311;SDS011;23197;53.912;9.138;2022-10-29T15:13:29;35.88;;;16.58;;
37311;SDS011;23197;53.912;9.138;2022-10-29T15:15:58;37.10;;;18.05;;
37311;SDS011;23197;53.912;9.138;2022-10-29T15:18:26;33.30;;;18.40;;
37311;SDS011;23197;53.912;9.138;2022-10-29T15:20:53;32.78;;;17.25;;
37311;SDS011;23197;53.912;9.138;2022-10-29T15:23:26;34.60;;;17.65;;
37311;SDS011;23197;53.912;9.138;2022-10-29T15:25:58;38.33;;;17.23;;
37311;SDS011;23197;53.912;9.138;2022-10-29T15:28:27;35.72;;;17.85;;
37311;SDS011;23197;53.912;9.138;2022-10-29T15:30:55;35.08;;;17.73;;
37311;SDS011;23197;53.912;9.138;2022-10-29T15:33:25;38.15;;;19.40;;
37311;SDS011;23197;53.912;9.138;2022-10-29T15:35:53;38.40;;;18.35;;
37311;SDS011;23197;53.912;9.138;2022-10-29T15:38:41;39.80;;;19.00;;
37311;SDS011;23197;53.912;9.138;2022-10-29T15:43:52;34.67;;;17.85;;
37311;SDS011;23197;53.912;9.138;2022-10-29T15:48:49;32.55;;;16.88;;
37311;SDS011;23197;53.912;9.138;2022-10-29T15:51:15;34.83;;;16.33;;
37311;SDS011;23197;53.912;9.138;2022-10-29T15:53:40;29.63;;;15.52;;
37311;SDS011;23197;53.912;9.138;2022-10-29T15:56:09;33.80;;;16.35;;
37311;SDS011;23197;53.912;9.138;2022-10-29T15:58:36;33.40;;;16.00;;
37311;SDS011;23197;53.912;9.138;2022-10-29T16:01:02;27.45;;;14.25;;
37311;SDS011;23197;53.912;9.138;2022-10-29T16:03:28;27.67;;;14.98;;
37311;SDS011;23197;53.912;9.138;2022-10-29T16:05:54;29.60;;;15.02;;
37311;SDS011;23197;53.912;9.138;2022-10-29T16:11:01;32.80;;;15.10;;
37311;SDS011;23197;53.912;9.138;2022-10-29T16:13:31;26.02;;;14.88;;
37311;SDS011;23197;53.912;9.138;2022-10-29T16:15:58;31.23;;;16.05;;
37311;SDS011;23197;53.912;9.138;2022-10-29T16:18:23;26.45;;;14.38;;
37311;SDS011;23197;53.912;9.138;2022-10-29T16:20:48;30.27;;;14.60;;
37311;SDS011;23197;53.912;9.138;2022-10-29T16:23:19;28.45;;;14.75;;
37311;SDS011;23197;53.912;9.138;2022-10-29T16:25:44;28.35;;;13.88;;
37311;SDS011;23197;53.912;9.138;2022-10-29T16:28:10;29.67;;;15.18;;
37311;SDS011;23197;53.912;9.138;2022-10-29T16:30:36;31.20;;;15.13;;
37311;SDS011;23197;53.912;9.138;2022-10-29T16:33:02;28.77;;;16.05;;
37311;SDS011;23197;53.912;9.138;2022-10-29T16:35:28;33.15;;;14.77;;
37311;SDS011;23197;53.912;9.138;2022-10-29T16:37:54;29.80;;;15.18;;
37311;SDS011;23197;53.912;9.138;2022-10-29T16:40:22;31.33;;;15.27;;
37311;SDS011;23197;53.912;9.138;2022-10-29T16:42:50;28.30;;;14.68;;
37311;SDS011;23197;53.912;9.138;2022-10-29T16:45:28;29.75;;;15.07;;
37311;SDS011;23197;53.912;9.138;2022-10-29T16:47:54;28.67;;;14.88;;
37311;SDS011;23197;53.912;9.138;2022-10-29T16:50:24;29.83;;;14.18;;
37311;SDS011;23197;53.912;9.138;2022-10-29T16:55:35;31.02;;;14.80;;
37311;SDS011;23197;53.912;9.138;2022-10-29T16:58:02;30.98;;;14.95;;
37311;SDS011;23197;53.912;9.138;2022-10-29T17:00:28;30.02;;;14.93;;
37311;SDS011;23197;53.912;9.138;2022-10-29T17:03:00;28.77;;;15.02;;
37311;SDS011;23197;53.912;9.138;2022-10-29T17:05:26;28.38;;;13.88;;
37311;SDS011;23197;53.912;9.138;2022-10-29T17:07:52;25.95;;;13.68;;
37311;SDS011;23197;53.912;9.138;2022-10-29T17:10:18;30.25;;;14.98;;
37311;SDS011;23197;53.912;9.138;2022-10-29T17:12:44;26.17;;;13.55;;
37311;SDS011;23197;53.912;9.138;2022-10-29T17:15:10;25.85;;;13.70;;
37311;SDS011;23197;53.912;9.138;2022-10-29T17:17:35;27.90;;;14.80;;
37311;SDS011;23197;53.912;9.138;2022-10-29T17:20:01;28.52;;;15.50;;
37311;SDS011;23197;53.912;9.138;2022-10-29T17:22:26;25.25;;;12.65;;
37311;SDS011;23197;53.912;9.138;2022-10-29T17:24:52;27.70;;;13.65;;
37311;SDS011;23197;53.912;9.138;2022-10-29T17:27:17;28.38;;;14.25;;
37311;SDS011;23197;53.912;9.138;2022-10-29T17:29:43;27.30;;;12.70;;
37311;SDS011;23197;53.912;9.138;2022-10-29T17:32:08;28.42;;;13.52;;
37311;SDS011;23197;53.912;9.138;2022-10-29T17:34:34;28.92;;;13.85;;
37311;SDS011;23197;53.912;9.138;2022-10-29T17:36:59;27.10;;;14.90;;
37311;SDS011;23197;53.912;9.138;2022-10-29T17:39:25;30.92;;;14.57;;
37311;SDS011;23197;53.912;9.138;2022-10-29T17:41:50;30.38;;;14.75;;
37311;SDS011;23197;53.912;9.138;2022-10-29T17:44:16;27.48;;;13.68;;
37311;SDS011;23197;53.912;9.138;2022-10-29T17:46:42;26.88;;;14.35;;
37311;SDS011;23197;53.912;9.138;2022-10-29T17:49:08;26.52;;;14.35;;
37311;SDS011;23197;53.912;9.138;2022-10-29T17:51:33;28.67;;;14.70;;
37311;SDS011;23197;53.912;9.138;2022-10-29T17:53:59;29.42;;;14.57;;
37311;SDS011;23197;53.912;9.138;2022-10-29T17:56:24;28.02;;;14.82;;
37311;SDS011;23197;53.912;9.138;2022-10-29T17:58:50;29.98;;;15.25;;
37311;SDS011;23197;53.912;9.138;2022-10-29T18:01:15;30.52;;;14.48;;